9TN6 weather

Performance Helicopters Heliport
Arlington, Tennessee, United States

Public forecast

Using degrees Fahrenheit for public forecast. Weather courtesy of forecast.io.

METAR (pilot weather report)

Closest report is Millington-Memphis Airport, 10.4 nm (19.3 km) WNW. Retrieved 2019/06/25 00:50 UTC (38 minutes ago):

KNQA 250050Z 21005KT 10SM CLR 26/21 A2989

TAF (pilot weather forecast)

Forecast is more than 12 hours old.

Closest forecast is Memphis International Airport, 21.0 nm (38.8 km) SW. Retrieved 2019/06/24 00:27 UTC (1 day ago):

TAF KMEM 242324Z 2500/2606 24007KT P6SM SCT040 BKN250 FM250200 VRB03KT P6SM SCT030 SCT250 FM251400 22006KT P6SM FEW040 SCT250 FM260000 17004KT P6SM FEW030 SCT100 SCT250